Time;durP1;ratioP1;P1;durP2;ratioP2;P2;SDS_P1;SDS_P2;PMS_P1;PMS_P2;Temp;Humidity;BMP_temperature;BMP_pressure;BME280_temperature;BME280_humidity;BME280_pressure;Samples;Min_cycle;Max_cycle;Signal;HPM_P1;HPM_P2
2023/04/20 03:58:05;;;;;;;18.35;13.93;;;;;;;10.83;86.25;100444.00;5606006;31;87438;-56
2023/04/20 04:01:12;;;;;;;18.52;13.57;;;;;;;10.83;86.25;100444.00;5583727;31;33137;-56
2023/04/20 04:04:15;;;;;;;16.25;12.90;;;;;;;10.45;81.73;100450.94;5583995;31;33220;-56
2023/04/20 04:07:18;;;;;;;18.58;12.93;;;;;;;10.57;88.27;100448.75;5583391;31;33713;-56
2023/04/20 04:10:20;;;;;;;14.45;11.60;;;;;;;10.75;79.64;100452.62;5570382;31;34945;-56
2023/04/20 04:13:23;;;;;;;18.45;12.85;;;;;;;10.70;85.09;100445.44;5565440;32;33624;-56
2023/04/20 04:16:26;;;;;;;17.20;12.27;;;;;;;10.65;82.56;100444.66;5577247;32;33491;-55
2023/04/20 04:19:28;;;;;;;17.25;12.82;;;;;;;10.75;80.14;100450.75;5572443;32;33225;-55
2023/04/20 04:22:31;;;;;;;15.68;12.23;;;;;;;10.80;78.44;100447.25;5567521;32;33630;-56
2023/04/20 04:25:41;;;;;;;18.83;12.60;;;;;;;10.97;77.25;100449.53;5580448;31;33271;-55
2023/04/20 04:28:48;;;;;;;16.15;12.68;;;;;;;10.99;78.42;100453.53;5563637;32;33220;-56
2023/04/20 04:31:52;;;;;;;16.73;12.55;;;;;;;10.84;76.66;100453.63;5577557;31;34344;-55
2023/04/20 04:34:55;;;;;;;17.52;13.00;;;;;;;10.98;75.15;100459.97;5582878;32;33587;-56
2023/04/20 04:37:57;;;;;;;16.37;12.60;;;;;;;10.90;75.63;100457.87;5582481;31;34448;-56
2023/04/20 04:41:00;;;;;;;15.25;12.60;;;;;;;10.85;75.40;100449.06;5581389;31;33095;-55
2023/04/20 04:44:04;;;;;;;15.82;12.35;;;;;;;10.67;78.29;100455.91;5566991;31;33305;-56
2023/04/20 04:47:08;;;;;;;13.55;11.38;;;;;;;10.77;76.76;100453.97;5582878;31;33134;-55
2023/04/20 04:50:11;;;;;;;15.88;12.75;;;;;;;10.59;78.38;100457.28;5577488;31;33759;-57
2023/04/20 04:53:14;;;;;;;16.48;12.40;;;;;;;10.86;76.04;100450.66;5581649;31;33499;-56
2023/04/20 04:56:17;;;;;;;18.67;12.32;;;;;;;10.90;75.50;100454.41;5582743;32;33562;-55
2023/04/20 04:59:19;;;;;;;14.23;12.00;;;;;;;10.84;77.66;100460.87;5583107;32;34281;-56
2023/04/20 05:02:21;;;;;;;16.48;11.57;;;;;;;10.81;75.86;100465.72;5570818;32;33566;-56
2023/04/20 05:05:24;;;;;;;18.20;13.98;;;;;;;10.96;75.64;100451.41;5563239;32;34306;-56
2023/04/20 05:08:26;;;;;;;19.55;14.43;;;;;;;11.07;75.11;100462.06;5560111;32;34191;-56
2023/04/20 05:11:31;;;;;;;17.20;13.20;;;;;;;11.09;74.63;100467.91;5569552;32;34165;-56
2023/04/20 05:14:34;;;;;;;16.42;12.68;;;;;;;11.17;75.24;100470.81;5569800;32;33636;-56
2023/04/20 05:17:36;;;;;;;18.30;14.05;;;;;;;11.12;82.13;100470.03;5569155;32;34329;-56
2023/04/20 05:20:39;;;;;;;19.45;14.00;;;;;;;11.26;74.78;100474.50;5568538;32;34263;-55
2023/04/20 05:23:41;;;;;;;19.85;14.75;;;;;;;11.46;73.73;100472.72;5569470;32;34383;-56
2023/04/20 05:26:44;;;;;;;17.60;14.95;;;;;;;11.51;75.98;100468.06;5569379;32;34320;-56
2023/04/20 05:29:46;;;;;;;20.17;15.18;;;;;;;11.70;73.91;100470.03;5569413;32;33275;-56
2023/04/20 05:32:49;;;;;;;18.67;13.77;;;;;;;11.74;73.84;100473.75;5568563;32;34278;-56
2023/04/20 05:35:57;;;;;;;17.15;13.80;;;;;;;11.75;74.87;100478.03;5569199;32;34280;-56
2023/04/20 05:38:59;;;;;;;17.30;13.18;;;;;;;11.97;73.39;100474.87;5569715;32;34300;-56
2023/04/20 05:42:01;;;;;;;20.17;13.65;;;;;;;11.82;80.66;100475.00;5569667;32;33648;-56
2023/04/20 05:45:04;;;;;;;18.50;14.05;;;;;;;12.20;85.68;100479.41;5569241;32;33577;-56
2023/04/20 05:48:06;;;;;;;18.42;13.68;;;;;;;12.18;73.91;100478.88;5556803;32;33611;-56
2023/04/20 05:51:09;;;;;;;23.23;13.52;;;;;;;12.23;73.63;100475.34;5548986;32;33655;-56
2023/04/20 05:54:11;;;;;;;16.67;12.75;;;;;;;12.40;74.71;100481.03;5549537;32;33874;-56
2023/04/20 05:57:13;;;;;;;20.30;12.50;;;;;;;12.56;73.99;100484.31;5550033;32;34313;-55
2023/04/20 06:00:16;;;;;;;15.35;13.05;;;;;;;12.72;71.80;100481.41;5549655;32;34282;-55
2023/04/20 06:03:19;;;;;;;14.27;10.90;;;;;;;12.87;71.73;100486.56;5549886;32;33398;-56
2023/04/20 06:06:21;;;;;;;10.63;9.02;;;;;;;13.04;79.76;100484.13;5549405;32;34245;-55
2023/04/20 06:09:24;;;;;;;12.95;8.95;;;;;;;13.44;73.37;100484.56;5554162;32;33371;-56
2023/04/20 06:12:28;;;;;;;11.60;9.43;;;;;;;13.70;81.98;100494.87;5566945;32;33796;-55
2023/04/20 06:15:31;;;;;;;16.05;8.93;;;;;;;13.99;79.14;100491.91;5565738;32;33654;-56
2023/04/20 06:18:34;;;;;;;12.77;9.85;;;;;;;14.24;77.84;100487.91;5565383;32;33708;-57
2023/04/20 06:21:37;;;;;;;12.93;9.68;;;;;;;14.33;72.70;100483.38;5566490;32;34013;-56
2023/04/20 06:24:41;;;;;;;14.75;10.45;;;;;;;14.43;83.35;100493.12;5550276;31;34256;-56
2023/04/20 06:27:43;;;;;;;12.88;9.82;;;;;;;14.23;61.54;100495.16;5564905;32;33599;-56
2023/04/20 06:30:48;;;;;;;14.38;9.90;;;;;;;14.26;62.87;100494.56;5560263;32;34393;-56
2023/04/20 06:33:52;;;;;;;13.70;10.53;;;;;;;14.40;73.24;100499.94;5551294;32;35566;-55
2023/04/20 06:36:54;;;;;;;16.27;10.90;;;;;;;14.59;76.14;100494.44;5554204;32;34544;-57
2023/04/20 06:39:57;;;;;;;16.67;10.57;;;;;;;14.57;63.73;100502.06;5561535;32;34421;-56
2023/04/20 06:42:59;;;;;;;12.68;9.60;;;;;;;14.57;67.03;100500.16;5566104;32;34494;-56
2023/04/20 06:46:02;;;;;;;14.52;10.10;;;;;;;14.79;66.12;100496.66;5561942;32;34478;-56
2023/04/20 06:49:05;;;;;;;13.68;9.68;;;;;;;14.76;63.89;100491.09;5557825;32;34355;-56
2023/04/20 06:52:07;;;;;;;27.92;9.68;;;;;;;14.84;67.18;100500.38;5551175;32;33667;-56
2023/04/20 06:55:10;;;;;;;11.98;9.48;;;;;;;14.78;60.40;100497.78;5558623;32;33623;-56
2023/04/20 06:58:12;;;;;;;12.23;10.07;;;;;;;14.88;74.26;100499.44;5558606;32;33680;-55
2023/04/20 07:01:15;;;;;;;16.17;9.68;;;;;;;14.86;60.29;100496.25;5559059;32;33471;-56
2023/04/20 07:04:17;;;;;;;12.77;9.77;;;;;;;14.68;60.22;100497.22;5561581;32;33532;-56
2023/04/20 07:07:20;;;;;;;14.90;9.98;;;;;;;14.77;60.14;100501.59;5563487;32;31843;-57
2023/04/20 07:10:22;;;;;;;14.45;10.30;;;;;;;14.65;58.66;100500.53;5562616;32;33656;-55
2023/04/20 07:13:25;;;;;;;17.15;8.95;;;;;;;14.64;57.82;100499.72;5563914;32;34248;-56
2023/04/20 07:16:27;;;;;;;12.65;8.80;;;;;;;14.62;57.44;100504.63;5551919;32;33683;-57
2023/04/20 07:19:29;;;;;;;13.93;9.38;;;;;;;14.66;60.25;100499.41;5547825;32;33720;-55
2023/04/20 07:22:35;;;;;;;14.70;9.40;;;;;;;14.63;56.31;100503.50;5555653;32;32141;-56
2023/04/20 07:25:38;;;;;;;11.63;9.10;;;;;;;14.68;56.39;100502.63;5548598;32;34407;-59
2023/04/20 07:28:41;;;;;;;11.82;8.93;;;;;;;14.77;58.30;100495.41;5557880;32;34277;-56
2023/04/20 07:31:44;;;;;;;10.50;8.25;;;;;;;14.85;56.80;100500.06;5561638;32;33661;-56
2023/04/20 07:34:47;;;;;;;11.75;8.25;;;;;;;15.01;59.03;100505.91;5562839;32;34251;-56
2023/04/20 07:37:49;;;;;;;9.85;7.62;;;;;;;14.95;53.88;100504.41;5563963;32;33058;-57
2023/04/20 07:40:51;;;;;;;9.38;8.00;;;;;;;14.86;54.79;100500.84;5565647;32;34300;-56
2023/04/20 07:43:54;;;;;;;10.65;7.10;;;;;;;14.92;55.36;100510.44;5567526;32;33141;-56
2023/04/20 07:46:57;;;;;;;10.05;7.40;;;;;;;15.04;56.52;100507.97;5562529;32;33597;-56
2023/04/20 07:50:00;;;;;;;13.35;8.10;;;;;;;14.92;52.48;100502.31;5555011;32;33688;-56
2023/04/20 07:53:02;;;;;;;9.77;7.57;;;;;;;14.78;53.33;100510.47;5562658;32;33546;-56
2023/04/20 07:56:05;;;;;;;12.98;7.47;;;;;;;14.75;52.53;100506.47;5565753;32;33641;-56
2023/04/20 07:59:09;;;;;;;11.02;7.00;;;;;;;14.89;53.13;100511.03;5552857;32;33569;-57
2023/04/20 08:02:11;;;;;;;12.45;7.75;;;;;;;14.99;55.74;100513.50;5556988;32;32992;-54
2023/04/20 08:05:13;;;;;;;11.43;7.40;;;;;;;15.11;56.36;100504.84;5563342;32;34401;-53
2023/04/20 08:08:16;;;;;;;11.63;7.43;;;;;;;15.23;54.15;100505.91;5556729;32;34405;-54
2023/04/20 08:11:20;;;;;;;11.10;8.23;;;;;;;15.24;54.19;100509.41;5556841;32;34306;-54
2023/04/20 08:14:22;;;;;;;11.60;7.70;;;;;;;15.20;53.33;100495.72;5561438;32;33750;-53
2023/04/20 08:17:25;;;;;;;10.43;7.60;;;;;;;15.28;54.34;100510.38;5561730;32;33699;-54
2023/04/20 08:20:27;;;;;;;12.02;7.70;;;;;;;15.29;52.66;100506.53;5566437;32;33604;-54
2023/04/20 08:23:30;;;;;;;9.90;7.45;;;;;;;15.44;51.81;100505.37;5565498;32;33423;-54
2023/04/20 08:26:33;;;;;;;9.23;6.82;;;;;;;15.44;49.94;100492.66;5566698;32;33565;-54
2023/04/20 08:29:37;;;;;;;10.50;7.05;;;;;;;15.51;54.95;100500.34;5564472;32;33557;-53
2023/04/20 08:32:41;;;;;;;13.05;7.28;;;;;;;15.62;50.64;100495.44;5565767;32;33649;-54
2023/04/20 08:35:45;;;;;;;10.32;7.07;;;;;;;15.76;55.41;100492.66;5565353;32;33782;-53
2023/04/20 08:39:04;;;;;;;10.63;7.05;;;;;;;15.77;49.70;100491.59;5564753;32;33829;-53
2023/04/20 08:42:07;;;;;;;13.45;7.95;;;;;;;15.91;56.17;100495.75;5563142;32;34251;-53
2023/04/20 08:45:09;;;;;;;9.05;7.28;;;;;;;15.99;50.79;100494.19;5565952;32;33223;-53
2023/04/20 08:48:12;;;;;;;9.00;7.62;;;;;;;15.95;50.36;100487.81;5561826;32;33689;-53
2023/04/20 08:51:16;;;;;;;12.75;6.70;;;;;;;16.13;52.50;100485.97;5552336;32;33692;-55
2023/04/20 08:54:20;;;;;;;11.93;7.23;;;;;;;15.98;49.62;100489.91;5566508;32;34377;-54
2023/04/20 08:57:25;;;;;;;10.13;7.10;;;;;;;16.11;51.89;100497.09;5557904;32;33640;-55
2023/04/20 09:00:27;;;;;;;8.30;6.75;;;;;;;16.09;53.74;100488.50;5566718;32;33395;-55
2023/04/20 09:03:36;;;;;;;10.77;7.28;;;;;;;16.21;51.94;100491.37;5569285;32;32767;-53
2023/04/20 09:06:42;;;;;;;10.18;6.90;;;;;;;16.40;49.66;100493.03;5566444;32;33324;-55
2023/04/20 09:09:58;;;;;;;9.18;6.57;;;;;;;16.28;48.83;100492.84;5566748;32;33649;-55
2023/04/20 09:13:00;;;;;;;8.57;6.90;;;;;;;16.24;47.47;100489.19;5567902;32;33685;-53
2023/04/20 09:16:10;;;;;;;8.27;6.80;;;;;;;16.24;47.99;100487.25;5568165;32;33637;-55
2023/04/20 09:19:13;;;;;;;7.65;6.28;;;;;;;16.32;49.85;100485.69;5556450;32;34355;-54
2023/04/20 09:22:16;;;;;;;8.48;6.20;;;;;;;16.42;55.35;100486.19;5560391;32;33835;-56
2023/04/20 09:25:20;;;;;;;14.07;6.10;;;;;;;16.40;46.05;100484.91;5555492;32;33712;-55
2023/04/20 09:28:22;;;;;;;7.25;5.80;;;;;;;16.47;47.39;100479.03;5558606;32;34323;-54
2023/04/20 09:31:24;;;;;;;9.32;6.30;;;;;;;16.48;45.07;100486.03;5564735;32;33677;-55
2023/04/20 09:34:28;;;;;;;10.18;5.70;;;;;;;16.51;52.04;100477.28;5567555;32;33669;-55
2023/04/20 09:37:30;;;;;;;9.13;5.80;;;;;;;16.53;49.00;100483.97;5567524;32;34430;-55
2023/04/20 09:40:34;;;;;;;8.48;6.12;;;;;;;16.50;45.60;100476.47;5568224;32;33833;-55
2023/04/20 09:43:38;;;;;;;10.10;6.10;;;;;;;16.64;48.42;100487.94;5563282;32;33957;-55
2023/04/20 09:46:41;;;;;;;7.90;5.53;;;;;;;16.74;51.18;100481.41;5566833;32;33704;-55
2023/04/20 09:49:46;;;;;;;12.07;6.45;;;;;;;16.95;48.93;100478.88;5563979;31;34276;-54
2023/04/20 09:52:49;;;;;;;7.12;6.30;;;;;;;17.02;51.08;100471.09;5568089;32;33382;-55
2023/04/20 09:55:57;;;;;;;10.48;5.90;;;;;;;17.08;46.47;100477.13;5566924;32;34217;-54
2023/04/20 09:59:02;;;;;;;8.18;6.10;;;;;;;17.08;47.10;100468.97;5567772;32;34233;-55
2023/04/20 10:02:09;;;;;;;51.08;8.10;;;;;;;17.17;55.80;100472.47;5567779;32;33688;-54
2023/04/20 10:05:12;;;;;;;8.23;6.12;;;;;;;17.10;49.17;100472.19;5568987;32;34420;-54
2023/04/20 10:08:15;;;;;;;10.48;5.85;;;;;;;17.13;53.57;100472.34;5564972;32;33690;-55
2023/04/20 10:11:26;;;;;;;10.25;5.87;;;;;;;17.29;51.92;100466.41;5567152;31;34277;-56
2023/04/20 10:14:39;;;;;;;8.10;5.90;;;;;;;17.03;45.61;100456.41;5563749;32;34381;-54
2023/04/20 10:17:42;;;;;;;10.63;5.70;;;;;;;17.09;45.82;100452.44;5563322;32;32411;-55
2023/04/20 10:20:45;;;;;;;8.90;5.30;;;;;;;17.03;46.29;100458.34;5561209;31;35358;-54
2023/04/20 10:23:51;;;;;;;8.70;5.65;;;;;;;17.00;45.50;100454.34;5554175;32;34050;-55
2023/04/20 10:26:54;;;;;;;7.25;5.70;;;;;;;17.14;45.48;100460.37;5562317;32;33754;-57
2023/04/20 10:30:09;;;;;;;8.18;5.80;;;;;;;17.04;45.00;100457.22;5566837;32;32996;-57
2023/04/20 10:33:11;;;;;;;10.23;6.05;;;;;;;17.07;44.59;100456.56;5565706;32;34093;-57
2023/04/20 10:36:47;;;;;;;12.07;6.53;;;;;;;17.19;46.20;100439.66;5563173;32;33600;-56
2023/04/20 10:39:50;;;;;;;11.32;6.32;;;;;;;17.40;46.50;100440.53;5535805;32;33554;-56
2023/04/20 10:42:52;;;;;;;9.13;6.45;;;;;;;17.49;47.54;100446.72;5561701;32;33965;-57
2023/04/20 10:45:55;;;;;;;11.50;5.95;;;;;;;17.46;44.44;100441.97;5563267;32;34249;-56
2023/04/20 10:49:03;;;;;;;8.73;6.35;;;;;;;17.56;45.37;100432.69;5566282;31;31948;-57
2023/04/20 10:52:05;;;;;;;8.52;6.10;;;;;;;17.52;44.53;100437.16;5566725;32;34827;-56
2023/04/20 10:55:22;;;;;;;7.93;5.78;;;;;;;17.52;43.91;100431.75;5559866;32;34920;-56
2023/04/20 10:58:25;;;;;;;8.82;5.65;;;;;;;17.50;43.67;100432.06;5563008;32;33444;-56
2023/04/20 11:01:31;;;;;;;7.75;5.70;;;;;;;17.55;46.30;100423.75;5555630;32;33680;-57
2023/04/20 11:04:34;;;;;;;;;;;;;;;17.77;46.54;100414.56;5555392;32;33764;-57
2023/04/20 11:07:55;;;;;;;8.00;5.85;;;;;;;17.82;47.27;100417.09;5556493;32;33312;-57
2023/04/20 11:10:58;;;;;;;8.25;6.03;;;;;;;17.84;44.89;100416.75;5555780;32;33688;-57
2023/04/20 11:14:08;;;;;;;6.82;5.15;;;;;;;17.80;44.50;100421.25;5557228;32;33424;-56
2023/04/20 11:17:11;;;;;;;9.80;5.32;;;;;;;17.88;45.90;100419.63;5561481;32;33740;-56
2023/04/20 11:20:17;;;;;;;7.75;5.37;;;;;;;17.84;42.44;100411.34;5559042;32;33622;-57
2023/04/20 11:23:20;;;;;;;9.77;5.15;;;;;;;17.89;44.23;100413.87;5554383;32;32993;-57
2023/04/20 11:26:34;;;;;;;10.77;6.03;;;;;;;17.88;43.20;100408.75;5556538;32;34488;-57
2023/04/20 11:29:38;;;;;;;7.30;5.40;;;;;;;17.92;47.98;100420.56;5557900;32;33727;-57
2023/04/20 11:32:42;;;;;;;7.30;5.85;;;;;;;18.06;51.02;100411.03;5556200;32;33884;-57
2023/04/20 11:35:45;;;;;;;8.52;5.25;;;;;;;18.14;46.30;100412.09;5553192;31;32542;-57
2023/04/20 11:38:48;;;;;;;6.80;5.10;;;;;;;18.08;42.63;100408.81;5552145;32;34304;-57
2023/04/20 11:46:18;;;;;;;8.35;5.22;;;;;;;17.99;41.79;100399.16;5551920;32;35511;-57
2023/04/20 11:49:20;;;;;;;6.75;5.00;;;;;;;18.07;45.02;100396.34;5548598;32;34596;-57
2023/04/20 11:52:22;;;;;;;9.88;4.37;;;;;;;18.15;40.83;100392.00;5546113;32;33813;-57
2023/04/20 11:55:25;;;;;;;6.57;4.22;;;;;;;18.16;40.14;100398.22;5547289;32;33711;-57
2023/04/20 11:58:28;;;;;;;4.32;3.55;;;;;;;18.22;46.98;100397.69;5556629;32;34321;-57
2023/04/20 12:01:34;;;;;;;7.95;4.62;;;;;;;18.19;40.92;100389.44;5556124;32;34172;-57
2023/04/20 12:04:37;;;;;;;5.85;4.50;;;;;;;18.19;40.31;100390.22;5563434;32;34311;-57
2023/04/20 12:07:42;;;;;;;7.03;4.32;;;;;;;18.30;46.51;100399.53;5564511;32;34372;-57
2023/04/20 12:10:44;;;;;;;5.18;3.90;;;;;;;18.37;39.46;100393.56;5563402;32;33654;-57
2023/04/20 12:13:46;;;;;;;8.30;4.32;;;;;;;18.44;38.28;100387.62;5560887;32;33943;-57
2023/04/20 12:16:49;;;;;;;5.05;3.95;;;;;;;18.45;42.00;100387.28;5562988;32;34287;-57
2023/04/20 12:19:51;;;;;;;6.37;4.05;;;;;;;18.52;43.42;100384.84;5570033;32;33946;-57
2023/04/20 12:22:53;;;;;;;5.62;4.07;;;;;;;18.58;39.32;100381.94;5560338;32;33169;-56
2023/04/20 12:25:58;;;;;;;5.05;3.30;;;;;;;18.63;41.08;100387.91;5566805;32;33658;-55
2023/04/20 12:29:01;;;;;;;6.25;3.97;;;;;;;18.56;38.98;100379.53;5570051;32;33868;-57
2023/04/20 12:32:03;;;;;;;5.40;3.50;;;;;;;18.57;38.55;100377.59;5569657;32;34392;-57
2023/04/20 12:35:07;;;;;;;7.82;3.50;;;;;;;18.53;38.18;100380.19;5569152;32;34296;-58
2023/04/20 12:38:09;;;;;;;7.90;4.12;;;;;;;18.57;40.90;100375.69;5567204;32;32252;-57
2023/04/20 12:41:15;;;;;;;4.65;3.72;;;;;;;18.61;39.31;100367.66;5568674;32;34070;-57
2023/04/20 12:44:18;;;;;;;4.15;3.47;;;;;;;18.68;36.03;100368.72;5568261;32;33611;-57
2023/04/20 12:47:20;;;;;;;5.62;3.70;;;;;;;18.75;36.68;100366.28;5569894;32;33627;-57
2023/04/20 12:50:24;;;;;;;6.68;3.75;;;;;;;18.78;37.98;100362.87;5569247;32;34235;-57
2023/04/20 12:53:26;;;;;;;7.25;4.00;;;;;;;18.77;36.46;100365.94;5568968;32;33877;-57
2023/04/20 12:56:28;;;;;;;4.47;3.35;;;;;;;18.83;39.98;100352.94;5568420;32;32205;-57
2023/04/20 12:59:32;;;;;;;5.28;4.18;;;;;;;18.80;37.67;100359.81;5568259;32;33768;-57
2023/04/20 13:02:35;;;;;;;7.53;3.42;;;;;;;18.87;37.64;100357.34;5566187;32;34124;-57
2023/04/20 13:05:39;;;;;;;7.15;3.80;;;;;;;18.86;36.23;100358.50;5569471;32;33612;-57
2023/04/20 13:08:43;;;;;;;4.90;3.30;;;;;;;18.89;37.95;100340.72;5568565;32;33719;-57
2023/04/20 13:11:47;;;;;;;4.93;3.45;;;;;;;18.84;34.76;100344.47;5568923;32;33624;-57
2023/04/20 13:14:50;;;;;;;5.90;4.00;;;;;;;18.88;35.30;100337.22;5569192;32;34777;-57
2023/04/20 13:17:52;;;;;;;9.00;3.70;;;;;;;18.93;35.94;100347.06;5566620;32;34362;-57
2023/04/20 13:20:55;;;;;;;5.45;3.60;;;;;;;18.92;36.67;100332.69;5567041;32;34409;-57
2023/04/20 13:23:58;;;;;;;8.40;3.47;;;;;;;18.90;37.38;100347.75;5566057;32;33639;-57
2023/04/20 13:27:00;;;;;;;6.72;3.97;;;;;;;19.13;39.68;100337.25;5569642;32;33730;-57
2023/04/20 13:30:05;;;;;;;6.47;3.72;;;;;;;19.12;42.07;100333.75;5567992;32;33584;-58
2023/04/20 13:33:07;;;;;;;5.72;3.58;;;;;;;19.17;37.21;100332.72;5567944;32;34291;-57
2023/04/20 13:36:09;;;;;;;5.28;3.60;;;;;;;19.22;47.33;100327.84;5566397;32;33829;-57
2023/04/20 13:39:12;;;;;;;5.80;3.30;;;;;;;19.33;37.58;100332.84;5568225;32;33296;-58
2023/04/20 13:42:14;;;;;;;7.75;3.55;;;;;;;19.13;36.36;100329.88;5567549;32;33590;-57
2023/04/20 13:45:17;;;;;;;10.30;3.70;;;;;;;19.17;35.29;100338.16;5569408;32;33618;-58
2023/04/20 13:48:20;;;;;;;5.20;3.33;;;;;;;19.09;37.25;100339.84;5567963;32;33562;-57
2023/04/20 13:51:23;;;;;;;5.55;3.55;;;;;;;19.13;40.20;100320.94;5567698;32;34517;-57
2023/04/20 13:54:26;;;;;;;6.78;4.20;;;;;;;19.14;38.21;100322.53;5560493;32;33660;-57
2023/04/20 13:57:30;;;;;;;8.02;3.97;;;;;;;19.31;39.08;100325.03;5567522;32;33627;-58
2023/04/20 14:00:33;;;;;;;7.35;4.20;;;;;;;19.34;41.34;100331.72;5569160;32;34349;-57
2023/04/20 14:03:36;;;;;;;13.00;4.35;;;;;;;19.31;40.18;100321.53;5569017;32;33263;-57
2023/04/20 14:06:38;;;;;;;6.50;3.95;;;;;;;19.29;38.00;100323.78;5569231;32;34336;-58
2023/04/20 14:09:43;;;;;;;5.53;3.87;;;;;;;19.27;42.81;100312.44;5568652;31;34325;-57
2023/04/20 14:12:45;;;;;;;7.40;3.90;;;;;;;19.32;40.35;100312.22;5568176;32;34630;-58
2023/04/20 14:15:48;;;;;;;6.70;3.90;;;;;;;19.23;40.45;100304.19;5569145;32;33620;-58
2023/04/20 14:18:50;;;;;;;6.45;3.92;;;;;;;19.18;40.29;100299.00;5569097;32;33321;-58
2023/04/20 14:21:53;;;;;;;5.00;3.85;;;;;;;19.06;37.44;100299.78;5568742;32;33686;-58
2023/04/20 14:24:55;;;;;;;6.78;3.67;;;;;;;19.18;36.74;100294.34;5569121;32;33718;-57
2023/04/20 14:27:57;;;;;;;5.70;3.50;;;;;;;19.12;35.73;100303.06;5569469;32;33652;-58
2023/04/20 14:31:01;;;;;;;5.35;3.40;;;;;;;19.11;35.75;100291.41;5569317;32;34380;-57
2023/04/20 14:34:04;;;;;;;6.18;4.03;;;;;;;19.04;35.55;100288.47;5569272;32;33343;-57
2023/04/20 14:37:06;;;;;;;7.03;4.30;;;;;;;19.04;40.03;100287.66;5569095;32;33852;-58
2023/04/20 14:40:09;;;;;;;7.40;4.20;;;;;;;19.07;39.37;100293.19;5568009;32;33668;-58
2023/04/20 14:43:11;;;;;;;5.45;3.80;;;;;;;19.10;40.69;100289.00;5551826;32;33560;-58
2023/04/20 14:46:14;;;;;;;7.40;3.90;;;;;;;19.15;38.43;100286.09;5549727;32;33728;-58
2023/04/20 14:49:16;;;;;;;4.93;3.75;;;;;;;19.12;43.45;100286.75;5549586;32;33727;-57
2023/04/20 14:52:19;;;;;;;4.90;3.62;;;;;;;19.21;42.69;100292.88;5551597;32;33853;-57
2023/04/20 14:55:23;;;;;;;5.97;3.60;;;;;;;19.12;35.40;100292.19;5569032;32;33746;-58
2023/04/20 14:58:25;;;;;;;5.72;3.50;;;;;;;19.09;40.77;100288.22;5568833;32;33625;-57
2023/04/20 15:01:28;;;;;;;4.78;3.30;;;;;;;19.02;37.97;100277.13;5562506;32;34405;-57
2023/04/20 15:04:30;;;;;;;4.97;3.70;;;;;;;18.94;36.88;100284.28;5549492;32;33959;-58
2023/04/20 15:07:33;;;;;;;6.78;3.17;;;;;;;19.00;38.93;100273.94;5549184;32;33617;-57
2023/04/20 15:10:35;;;;;;;7.75;3.53;;;;;;;18.99;36.36;100280.53;5552979;32;33832;-58
2023/04/20 15:13:41;;;;;;;4.07;2.83;;;;;;;19.00;36.99;100273.94;5568763;32;33741;-57
2023/04/20 15:16:43;;;;;;;3.70;2.85;;;;;;;19.13;36.19;100275.53;5568509;32;34361;-57
2023/04/20 15:19:45;;;;;;;6.80;2.83;;;;;;;19.04;34.31;100279.50;5568839;32;34433;-57
2023/04/20 15:22:48;;;;;;;5.53;3.12;;;;;;;19.07;36.39;100282.31;5567724;32;33604;-57
2023/04/20 15:25:51;;;;;;;4.68;3.40;;;;;;;19.09;37.97;100282.78;5568896;32;34408;-57
2023/04/20 15:28:54;;;;;;;6.35;3.10;;;;;;;19.11;38.06;100282.47;5568211;32;34984;-57
2023/04/20 15:31:56;;;;;;;5.20;3.15;;;;;;;19.21;35.60;100282.00;5568512;32;34297;-57
2023/04/20 15:34:59;;;;;;;5.68;3.15;;;;;;;19.13;39.59;100283.69;5568803;32;33652;-57
2023/04/20 15:38:02;;;;;;;4.07;3.08;;;;;;;19.20;35.30;100283.94;5568553;32;34443;-57
